Summit Hill, Pennsylvania
Current Conditions -  °F | °C
As of 9:35 PM on Wednesday 22 Oct 2014 (Local Time) from KHZL Reporting Station
Drizzle Drizzle  
Wind Chill: 41°   Ceiling: 500
Heat Index: 46°   Visibility: 7mi
Dew Point: 45°   Wind: 12mph
Humidity: 93%   Direction: 340°NNW
Pressure: 29.96"   Gusts: 18mph
Location:  40.82°N, 75.87°W
Report Text: KHZL 230135Z AUTO 34010G16KT 7SM DZ OVC005 08/07 A2996 RMK AO2
Loading
Personal Weather Stations






























Interactive Weather Map
Tropical Storm Tracking
New forecast layout! Learn more

10-Day Weather Forecast

Advertisements
Track Severe Weather on mobile